Aeroporto :
LOGIN :

Iscrizione | Disclaimer

   EN    FR    IT 

 










Sommario :    VFR   VFR Marginale   IFR   IFR Intensivo   IFR Molto Intensivo
Visibilità : 
Base nubi : 
>= 8 km
>= 3000ft
5 / 8 km
1000 / 3000 ft
1500m / 5 km
500 / 1000 ft
800 / 1500m
200 / 500 ft
< 800m
< 200 ft
Simboli :   Temporali  Nebbia  Neve Forte  Precipitazioni Forti  Vento > 20 kt
SIGMETs :   Varie  Temporali  Ghiacco  Turbolenza  Onda orograficha  Ceneri Vulcaniche







- Altitudine del aeroporto : 26 ft


ETNT - Wittmundhaven AB

ULTIMO METAR :
  • 170620Z VRB03KT 9999 FEW300 21/15 Q1013 BLU+BLU+

METARs OBSOLETI :
  • 170520Z 00000KT 9999 FEW120 17/14 Q1013 BLU+BLU+
  • 170438Z 11001KT 0050 R08/4700U FG FEW120 14/12 Q1013 RED BLU+ TEMPO RED
  • 170420Z 07001KT 2000 MIFG BR FEW120 14/12 Q1013 YLO BLU+ TEMPO YLO

TAF AMD TAF ETNT
Valido dal 17 a 05 ore il 17 a 14 ore UTC


170439Z 1705/1714 05005KT 9999 NSW FEW040 SCT120
TEMPO 1705/1706 05003KT 0500 FG FEW040 SCT120
BECMG 1708/1710 25010KT 9999 NSW SCT040 BKN120
PROB30 1711/1714 25010G20KT 6000 SHRA BKN040TCU BY ETGL
Nessun NOTAM noto per questo aeroporto.



MetMap, La meteo Aeronautica in un colpo d'occhio ! - Copyright ORBIFLY Dicembre 2007 - Disclaimer

ORBIFLY MET'MAP TEAM :

Programmazione e sviluppo : Alexandra Zaïnal
Concezione e sviluppo : Baudouin d'Aumeries
Co-Programmazione e sviluppo : Marc-Olivier Méhu
Supporto tecnico e logistico : Manuel Goepfert
Aiuto per la traduzione : Arnaldo La Scala

Contatto : metmap@orbifly.com




FONTI E CREDITI :

   NOAA